UUDD/DME METAR and TAF weather

Enter ICAO airport designator
Station Type Date Time Source
UUDD METAR 2020/01/18 15:30 UTC NOAA

UUDD 181530Z 22003MPS CAVOK M00/M03 Q1023 R88/CLRD60 NOSIG


Station Type Date Time Source
UUDD Decoded METAR 2020/01/18 15:30 UTC NOAA

Moscow / Domodedovo, Russia (UUDD) 55-24N 037-54E
Jan 18, 2020 - 10:30 AM EST / 2020.01.18 1530 UTC
Wind: from the SW (220 degrees) at 7 MPH (6 KT):0
Visibility: greater than 7 mile(s):0
Temperature: 32 F (0 C)
Windchill: 24 F (-4 C):1
Dew Point: 26 F (-3 C)
Relative Humidity: 80%
Pressure (altimeter): 30.21 in. Hg (1023 hPa)
ob: UUDD 181530Z 22003MPS CAVOK M00/M03 Q1023 R88/CLRD60 NOSIG
cycle: 15

Station Type Date Time Source
UUDD TAF 2020/01/18 15:24 UTC NOAA

TAF UUDD 181355Z 1815/1921 24006MPS 6000 SCT011 TX00/1910Z TNM02/1901Z PROB40
TEMPO 1815/1820 0300 FZFG FEW002
BECMG 1820/1822 FEW004 BKN011 PROB40
TEMPO 1900/1910 -FZDZ OVC004

Example: see airport list